Latest Weather Observations for The Monument

IDQ60801

Issued at 3:35 pm EST Thursday 24 April 2014 (issued every 30 minutes, with the page automatically refreshed every 10 minutes)

About weather observations | Map of weather stations | Latest weather observations for QLD | Other Formats
Station Details ID: 037034 Name: THE MONUMENT AIRPORT Lat: -21.81 Lon: 139.93 Height: 288.4 m
Data from the previous 72 hours. | See also: Recent months at The Monument
Date/Time
EST
Temp
°C
App
Temp
°C
Dew
Point
Rel
Hum
%
Delta-T
°C
Wind Press
QNH
hPa
Press
MSL
hPa
Rain
since 9 am
mm
Dir
 
Spd
km/h
Gust
km/h
Spd
kts
Gust
kts
24/03:30pm 33.0 - - - - ESE 15 24 8 13 1011.0 - 0.0
24/03:00pm 32.7 - - - - ESE 19 35 10 19 1011.2 1009.6 0.0
24/02:30pm 31.8 - - - - ESE 9 19 5 10 1011.5 - 0.0
24/02:00pm 31.2 - - - - SE 20 26 11 14 1011.9 - 0.0
24/01:30pm 32.1 - - - - S 15 26 8 14 1012.3 - 0.0
24/01:00pm 32.9 - - - - SE 17 32 9 17 1012.9 - 0.0
24/12:30pm 31.9 - - - - SSE 22 33 12 18 1013.6 - 0.0
24/12:00pm 30.9 - - - - SE 17 30 9 16 1014.2 1012.6 0.0
24/11:30am 30.3 - - - - SE 11 19 6 10 1014.7 - 0.0
24/11:00am 29.2 - - - - SE 11 19 6 10 1015.1 - 0.0
24/10:30am 28.6 - - - - S 11 19 6 10 1015.4 - 0.0
24/10:00am 27.9 - - - - S 13 19 7 10 1015.5 - 0.0
24/09:30am 26.6 - - - - SSW 15 20 8 11 1015.4 - 0.0
24/09:00am 25.4 - - - - SSW 11 17 6 9 1015.2 1013.7 0.0
24/08:30am 23.5 - - - - SW 6 7 3 4 1014.8 - 0.0
24/08:00am 21.3 - - - - NW 4 6 2 3 1014.6 - 0.0
24/07:30am 19.4 - - - - N 6 7 3 4 1014.2 - 0.0
24/07:00am 18.2 - - - - CALM 0 0 0 0 1013.9 - 0.0
24/06:30am 18.2 - - - - N 6 7 3 4 1013.6 - 0.0
24/06:00am 19.1 - - - - N 6 7 3 4 1013.1 1011.6 0.0
24/05:30am 18.5 - - - - NNE 7 9 4 5 1013.0 - 0.0
24/05:00am 18.9 - - - - CALM 0 0 0 0 1012.8 - 0.0
24/04:30am 19.8 - - - - N 2 6 1 3 1012.6 - 0.0
24/04:00am 20.2 - - - - N 7 9 4 5 1012.7 - 0.0
24/03:30am 20.5 - - - - NNE 7 7 4 4 1012.7 - 0.0
24/03:00am 21.2 - - - - NNE 6 9 3 5 1012.7 1011.2 0.0
24/02:30am 21.8 - - - - NNE 9 13 5 7 1012.8 - 0.0
24/02:00am 22.5 - - - - NNE 11 17 6 9 1012.9 - 0.0
24/01:30am 22.7 - - - - NNE 13 17 7 9 1013.1 - 0.0
24/01:00am 22.1 - - - - NNE 9 13 5 7 1013.6 - 0.0
24/12:30am 22.2 - - - - NNE 9 11 5 6 1013.8 - 0.0
24/12:00am 23.1 - - - - NNE 11 13 6 7 1014.0 1012.4 0.0
 
Date/Time
EST
Temp
°C
App
Temp
°C
Dew
Point
Rel
Hum
%
Delta-T
°C
Wind Press
QNH
hPa
Press
MSL
hPa
Rain
since 9 am
mm
Dir
 
Spd
km/h
Gust
km/h
Spd
kts
Gust
kts
23/11:30pm 24.3 - - - - NNE 15 19 8 10 1014.1 - 0.0
23/11:00pm 24.3 - - - - ESE 9 11 5 6 1014.1 - 0.0
23/10:30pm 24.7 - - - - E 9 11 5 6 1014.1 - 0.0
23/10:00pm 25.0 - - - - SE 11 13 6 7 1014.1 - 0.0
23/09:30pm 25.8 - - - - ESE 11 13 6 7 1014.1 - 0.0
23/09:00pm 26.0 - - - - ESE 11 13 6 7 1013.9 1012.3 0.0
23/08:30pm 26.7 - - - - ESE 11 13 6 7 1013.6 - 0.0
23/08:00pm 27.1 - - - - SE 11 13 6 7 1013.3 - 0.0
23/07:30pm 28.0 - - - - ESE 11 15 6 8 1013.0 - 0.0
23/07:00pm 28.9 - - - - SE 13 17 7 9 1012.8 - 0.0
23/06:30pm 30.0 - - - - ESE 11 15 6 8 1012.5 - 0.0
23/06:00pm 31.1 - - - - ESE 13 17 7 9 1012.3 1010.8 0.0
23/05:30pm 32.0 - - - - ESE 13 17 7 9 1012.0 - 0.0
23/05:00pm 32.6 - - - - SE 17 24 9 13 1011.9 - 0.0
23/04:30pm 32.8 - - - - SE 19 28 10 15 1012.0 - 0.0
23/04:00pm 33.9 - - - - SE 11 17 6 9 1012.0 - 0.0
23/03:30pm 32.5 - - - - ESE 13 20 7 11 1012.2 - 0.0
23/03:00pm 32.5 - - - - SSE 11 20 6 11 1012.3 1010.8 0.0
23/02:30pm 32.8 - - - - E 19 24 10 13 1012.7 - 0.0
23/02:00pm 32.2 - - - - ESE 15 24 8 13 1013.0 - 0.0
23/01:30pm 32.5 - - - - E 11 20 6 11 1013.5 - 0.0
23/01:00pm 31.4 - - - - ESE 15 20 8 11 1013.9 - 0.0
23/12:30pm 30.8 - - - - E 9 17 5 9 1014.4 - 0.0
23/12:00pm 32.2 - - - - NE 11 19 6 10 1015.0 1013.5 0.0
23/11:30am 31.1 - - - - N 13 20 7 11 1015.5 - 0.0
23/11:00am 30.6 - - - - NNE 15 20 8 11 1015.9 - 0.0
23/10:30am 29.4 - - - - N 11 17 6 9 1016.3 - 0.0
23/10:00am 28.4 - - - - N 15 24 8 13 1016.4 - 0.0
23/09:30am 27.9 - - - - NNE 15 22 8 12 1016.4 - 0.0
23/09:00am 26.0 - - - - NNE 15 20 8 11 1016.0 1014.5 0.0
23/08:30am 24.1 - - - - N 17 20 9 11 1015.7 - 0.0
23/08:00am 23.2 - - - - NNE 15 22 8 12 1015.3 - 0.0
23/07:30am 21.6 - - - - NE 7 11 4 6 1015.1 - 0.0
23/07:00am 20.2 - - - - NNE 7 9 4 5 1014.6 - 0.0
23/06:30am 20.7 - - - - NNE 11 13 6 7 1014.4 - 0.0
23/06:00am 20.9 - - - - NE 9 11 5 6 1014.1 1012.5 0.0
23/05:30am 21.4 - - - - NNE 11 13 6 7 1013.9 - 0.0
23/05:00am 22.1 - - - - NNE 11 13 6 7 1013.9 - 0.0
23/04:30am 22.5 - - - - NNE 9 13 5 7 1013.6 - 0.0
23/04:00am 23.0 - - - - N 13 17 7 9 1013.5 - 0.0
23/03:30am 23.3 - - - - N 13 19 7 10 1013.5 - 0.0
23/03:00am 23.3 - - - - NNE 13 19 7 10 1013.6 1012.0 0.0
23/02:30am 22.3 - - - - NNE 11 13 6 7 1013.8 - 0.0
23/02:00am 23.1 - - - - NNE 9 11 5 6 1014.0 - 0.0
23/01:30am 23.9 - - - - ENE 7 9 4 5 1014.4 - 0.0
23/01:00am 24.6 - - - - E 6 7 3 4 1014.4 - 0.0
23/12:30am 25.3 - - - - SE 7 7 4 4 1014.5 - 0.0
23/12:00am 26.3 - - - - E 11 15 6 8 1014.7 1013.1 0.0
 
Date/Time
EST
Temp
°C
App
Temp
°C
Dew
Point
Rel
Hum
%
Delta-T
°C
Wind Press
QNH
hPa
Press
MSL
hPa
Rain
since 9 am
mm
Dir
 
Spd
km/h
Gust
km/h
Spd
kts
Gust
kts
22/11:30pm 26.7 - - - - E 13 17 7 9 1014.8 - 0.0
22/11:00pm 27.3 - - - - ESE 11 15 6 8 1014.9 - 0.0
22/10:30pm 26.6 - - - - SE 11 13 6 7 1015.1 - 0.0
22/10:00pm 25.4 - - - - SE 9 11 5 6 1015.0 - 0.0
22/09:30pm 26.2 - - - - SSE 7 7 4 4 1015.1 - 0.0
22/09:00pm 27.0 - - - - S 11 13 6 7 1014.8 1013.2 0.0
22/08:30pm 27.2 - - - - S 9 11 5 6 1014.7 - 0.0
22/08:00pm 27.9 - - - - S 9 11 5 6 1014.4 - 0.0
22/07:30pm 28.4 - - - - SSE 9 11 5 6 1013.9 - 0.0
22/07:00pm 29.0 - - - - SSE 11 13 6 7 1013.7 - 0.0
22/06:30pm 30.0 - - - - SSE 9 11 5 6 1013.5 - 0.0
22/06:00pm 31.4 - - - - SE 13 19 7 10 1013.3 1011.7 0.0
22/05:30pm 32.2 - - - - SSE 11 17 6 9 1013.1 - 0.0
22/05:00pm 32.5 - - - - S 19 24 10 13 1013.1 - 0.0
22/04:30pm 32.2 - - - - SSW 11 15 6 8 1013.0 - 0.0
22/04:00pm 33.0 - - - - SSW 11 20 6 11 1012.9 - 0.0
22/03:30pm 32.6 - - - - SSW 6 13 3 7 1013.0 - 0.0
22/03:00pm 33.0 - - - - SE 11 20 6 11 1013.1 1011.6 0.0
22/02:30pm 32.1 - - - - S 13 20 7 11 1013.7 - 0.0
22/02:00pm 32.8 - - - - SE 13 20 7 11 1014.0 - 0.0
22/01:30pm 33.8 - - - - E 17 35 9 19 1014.5 - 0.0
22/01:00pm 31.8 - - - - ESE 13 20 7 11 1015.0 - 0.0
22/12:30pm 31.8 - - - - S 19 28 10 15 1015.6 - 0.0
22/12:00pm 32.0 - - - - SE 19 26 10 14 1016.1 1014.6 0.0
22/11:30am 31.9 - - - - E 11 22 6 12 1016.4 - 0.0
22/11:00am 31.0 - - - - E 13 20 7 11 1017.0 - 0.0
22/10:30am 30.1 - - - - NE 15 20 8 11 1017.2 - 0.0
22/10:00am 29.3 - - - - NE 17 22 9 12 1017.4 - 0.0
22/09:30am 28.0 - - - - NE 15 24 8 13 1017.3 - 0.0
22/09:00am 27.0 - - - - NE 13 20 7 11 1017.1 1015.5 0.0
22/08:30am 25.9 - - - - NE 15 22 8 12 1016.7 - 0.0
22/08:00am 23.6 - - - - NE 7 13 4 7 1016.4 - 0.0
22/07:30am 20.9 - - - - NNE 7 9 4 5 1016.1 - 0.0
22/07:00am 19.8 - - - - NNE 11 13 6 7 1015.7 - 0.0
22/06:30am 20.9 - - - - NE 13 15 7 8 1015.3 - 0.0
22/06:00am 21.0 - - - - NE 15 17 8 9 1014.9 1013.4 0.0
22/05:30am 20.8 - - - - NE 13 15 7 8 1014.9 - 0.0
22/05:00am 20.7 - - - - NNE 13 15 7 8 1014.7 - 0.0
22/04:30am 21.4 - - - - NNE 15 17 8 9 1014.6 - 0.0
22/04:00am 21.7 - - - - NNE 15 17 8 9 1014.6 - 0.0
22/03:30am 22.1 - - - - NNE 15 19 8 10 1014.5 - 0.0
22/03:00am 21.9 - - - - NNE 13 15 7 8 1014.8 1013.2 0.0
22/02:30am 22.3 - - - - NNE 13 15 7 8 1015.1 - 0.0
22/02:00am 22.2 - - - - NE 11 15 6 8 1015.2 - 0.0
22/01:30am 22.8 - - - - N 9 13 5 7 1015.2 - 0.0
22/01:00am 23.7 - - - - NNE 11 15 6 8 1015.5 - 0.0
22/12:30am 23.3 - - - - NE 11 15 6 8 1015.7 - 0.0
22/12:00am 22.8 - - - - ENE 6 7 3 4 1015.6 1014.1 0.0
 
Date/Time
EST
Temp
°C
App
Temp
°C
Dew
Point
Rel
Hum
%
Delta-T
°C
Wind Press
QNH
hPa
Press
MSL
hPa
Rain
since 9 am
mm
Dir
 
Spd
km/h
Gust
km/h
Spd
kts
Gust
kts
21/11:30pm 22.5 - - - - NNE 6 7 3 4 1015.7 - 0.0
21/11:00pm 23.4 - - - - CALM 0 0 0 0 1015.8 - 0.0
21/10:30pm 24.5 - - - - N 9 9 5 5 1015.7 - 0.0
21/10:00pm 24.9 - - - - NNE 9 9 5 5 1015.9 - 0.0
21/09:30pm 25.6 - - - - NNE 7 9 4 5 1015.8 - 0.0
21/09:00pm 26.3 - - - - NNE 11 13 6 7 1015.8 1014.3 0.0
21/08:30pm 26.0 - - - - ENE 9 11 5 6 1015.4 - 0.0
21/08:00pm 26.6 - - - - ENE 9 11 5 6 1015.1 - 0.0
21/07:30pm 27.7 - - - - E 11 15 6 8 1014.7 - 0.0
21/07:00pm 28.3 - - - - ENE 9 11 5 6 1014.5 - 0.0
21/06:30pm 29.2 - - - - E 9 11 5 6 1014.3 - 0.0
21/06:00pm 30.9 - - - - E 11 15 6 8 1013.9 1012.3 0.0
21/05:30pm 32.0 - - - - E 11 15 6 8 1013.8 - 0.0
21/05:00pm 31.7 - - - - ESE 9 13 5 7 1013.7 - 0.0
21/04:30pm 32.1 - - - - E 7 11 4 6 1013.6 - 0.0
21/04:00pm 32.3 - - - - NE 15 24 8 13 1013.6 - 0.0

Other Formats:

Comma delimited format used in spreadsheet applications
http://www.bom.gov.au/fwo/IDQ60801/IDQ60801.94336.axf

JavaScript Object Notation format (JSON) in row-major order
http://www.bom.gov.au/fwo/IDQ60801/IDQ60801.94336.json